エドワルド ゴメス国際空港(マナウス)の過去48時間の天気

エドワルド ゴメス国際空港(マナウス) (Eduardo Gomes International)

現在時刻: 9/15 23:04 -04 (9/16 03:04 UTC) 以下の時間は現地時間です。

過去48時間のMETAR気象情報
時間 風向 風速(m/s) 視程 気温(℃) 湿度(%) 気圧(hPa) 天気現象
15 22:00 静穏 0 10km以上 25 83 1011
15 21:00 北西 1 10km以上 26 74 1010
15 20:00 静穏 0 10km以上 27 66 1009
15 19:00 北西 2 10km以上 28 66 1008
15 18:00 1 10km以上 31 59 1008
15 17:00 東南東 3 10km以上 32 52 1008
15 16:00 南東 3 10km以上 33 49 1007
15 15:00 3 10km以上 33 49 1008
15 14:00 3 10km以上 32 59 1009
15 13:00 南南東 3 10km以上 31 66 1010
15 12:00 南南西 3 10km以上 32 56 1011
15 11:00 2 10km以上 33 49 1013
15 10:00 北北西 1 10km以上 32 56 1013
15 09:00 南西 2 10km以上 31 62 1013
15 08:00 西北西 1 10km以上 28 74 1013
15 07:00 西北西 1 10km以上 24 89 1012
15 06:00 静穏 0 10km以上 23 94 1011
15 05:00 北西 1 10km以上 24 89 1011
15 04:00 静穏 0 10km以上 24 89 1010
15 03:00 南南東 2 10km以上 25 83 1010
15 02:00 北北西 1 10km以上 24 89 1010
15 01:00 静穏 0 10km以上 24 89 1011
15 00:00 静穏 0 10km以上 25 83 1011
14 23:00 2 10km以上 25 83 1012
14 22:00 2 10km以上 25 78 1012
14 21:00 北西 2 10km以上 26 79 1011 周辺で雷
14 20:00 西北西 4 10km以上 27 70 1010 周辺で雷
14 19:00 北北西 1 10km以上 28 66 1010 周辺で雷
14 18:00 北北西 2 10km以上 29 62 1009
14 17:00 北東 2 10km以上 33 49 1008
14 16:00 東北東 2 10km以上 35 39 1008
SBEG 160200Z 00000KT CAVOK 25/22 Q1011
SBEG 160100Z 32002KT CAVOK 26/21 Q1010
SBEG 160000Z 00000KT CAVOK 27/20 Q1009
SBEG 152300Z 32004KT 9999 FEW025 SCT100 28/21 Q1008
SBEG 152200Z 01001KT 9999 FEW030TCU SCT100 31/22 Q1008
SBEG 152100Z 11005KT 9999 FEW025 FEW030TCU SCT100 32/21 Q1008
SBEG 152000Z 13006KT 9999 SCT025 FEW030TCU 33/21 Q1007
SBEG 151900Z 18006KT 9999 SCT025 FEW030TCU 33/21 Q1008
SBEG 151800Z 18005KT 9999 SCT025 FEW030TCU 32/23 Q1009
SBEG 151700Z 15006KT 9999 SCT025 FEW030TCU 31/24 Q1010
SBEG 151600Z 21006KT 9999 SCT030 32/22 Q1011
SBEG 151500Z 01003KT 9999 SCT025 33/21 Q1013
SBEG 151400Z 34002KT 9999 FEW020 BKN090 32/22 Q1013
SBEG 151300Z 22003KT CAVOK 31/23 Q1013
SBEG 151200Z 30001KT CAVOK 28/23 Q1013
SBEG 151100Z 30002KT CAVOK 24/22 Q1012
SBEG 151000Z 00000KT CAVOK 23/22 Q1011
SBEG 150900Z 31002KT CAVOK 24/22 Q1011
SBEG 150800Z 00000KT CAVOK 24/22 Q1010
SBEG 150700Z 16003KT CAVOK 25/22 Q1010
SBEG 150600Z 34002KT CAVOK 24/22 Q1010
SBEG 150500Z 00000KT CAVOK 24/22 Q1011
SBEG 150400Z 00000KT CAVOK 25/22 Q1011
SBEG 150300Z 19003KT CAVOK 25/22 Q1012
SBEG 150200Z 19003KT CAVOK 25/21 Q1012
SBEG 150100Z 31003KT 9999 VCTS FEW025CB 26/22 Q1011
SBEG 150000Z 30007KT 9999 VCTS FEW020 FEW025CB 27/21 Q1010
SBEG 142300Z 33002KT 9999 VCTS FEW020 FEW025CB SCT100 28/21 Q1010
SBEG 142200Z 34003KT 9999 FEW025 FEW030TCU SCT100 29/21 Q1009
SBEG 142100Z 04004KT 9999 SCT025 FEW030TCU SCT070 33/21 Q1008
SBEG 142000Z 06004KT 9999 SCT030 FEW035TCU 35/19 Q1008